createdAt,value
2023-03-23T15:59:38.586Z,96555.97
2023-03-23T16:02:05.131Z,96550.16
2023-03-23T16:04:32.126Z,96552.38
2023-03-23T16:06:59.185Z,96553.56
2023-03-23T16:09:26.282Z,96551.06
2023-03-23T16:11:52.842Z,96545.97
2023-03-23T16:14:19.395Z,96551.34
2023-03-23T16:16:51.238Z,96555.84
2023-03-23T16:19:20.430Z,96561.72
2023-03-23T16:21:47.146Z,96556.25
2023-03-23T16:24:13.687Z,96560.78
2023-03-23T16:26:41.017Z,96567.63
2023-03-23T16:29:33.729Z,96573.34
2023-03-23T16:32:02.946Z,96566.88
2023-03-23T16:34:33.028Z,96566.03
2023-03-23T16:36:59.584Z,96568.22
2023-03-23T16:39:26.175Z,96572.06
2023-03-23T16:41:52.674Z,96569.22
2023-03-23T16:44:19.437Z,96571.56
2023-03-23T16:46:46.033Z,96575.25
2023-03-23T16:49:12.515Z,96572.25
2023-03-23T16:51:40.185Z,96573.09
2023-03-23T16:54:07.856Z,96582.94
2023-03-23T16:56:34.389Z,96577.63
2023-03-23T16:59:01.082Z,96575.78
2023-03-23T17:01:27.680Z,96586.91
2023-03-23T17:03:55.936Z,96584.78
2023-03-23T17:06:22.498Z,96580.91
2023-03-23T17:08:48.999Z,96587.91
2023-03-23T17:11:15.801Z,96578.91
2023-03-23T17:13:42.312Z,96591.91
2023-03-23T17:16:09.183Z,96592.53
2023-03-23T17:18:35.775Z,96597.13
2023-03-23T17:21:02.298Z,96591.47
2023-03-23T17:23:29.235Z,96591.44
2023-03-23T17:25:56.155Z,96593.94
2023-03-23T17:28:22.725Z,96596.41
2023-03-23T17:30:51.154Z,96595.53
2023-03-23T17:33:17.761Z,96605.16
2023-03-23T17:35:46.831Z,96607.09
2023-03-23T17:38:13.944Z,96613.38
2023-03-23T17:40:40.471Z,96600.50
2023-03-23T17:43:07.047Z,96613.75
2023-03-23T17:45:33.700Z,96608.72
2023-03-23T17:48:00.827Z,96611.53
2023-03-23T17:50:27.800Z,96617.84
2023-03-23T17:52:54.449Z,96611.00
2023-03-23T17:55:21.061Z,96613.16
2023-03-23T17:57:47.595Z,96610.78
2023-03-23T18:00:15.308Z,96610.97
2023-03-23T18:02:41.925Z,96610.97
2023-03-23T18:05:09.892Z,96612.63
2023-03-23T18:07:36.961Z,96612.78
2023-03-23T18:10:11.522Z,96618.09
2023-03-23T18:12:41.600Z,96615.63
2023-03-23T18:15:08.991Z,96614.75
2023-03-23T18:17:36.107Z,96620.94
2023-03-23T18:20:07.426Z,96626.53
2023-03-23T18:22:34.199Z,96627.81
2023-03-23T18:25:02.623Z,96636.09
2023-03-23T18:27:29.128Z,96632.91
2023-03-23T18:29:59.000Z,96637.41
2023-03-23T18:32:30.467Z,96634.06
2023-03-23T18:34:57.090Z,96631.72
2023-03-23T18:37:24.782Z,96632.69
2023-03-23T18:39:51.487Z,96632.84
2023-03-23T18:42:18.228Z,96625.03
2023-03-23T18:44:44.777Z,96625.03
2023-03-23T18:47:13.837Z,96623.53
2023-03-23T18:49:40.343Z,96624.66
2023-03-23T18:52:06.897Z,96622.81
2023-03-23T18:54:34.894Z,96622.81
2023-03-23T18:57:02.936Z,96630.13
2023-03-23T18:59:34.449Z,96632.78
2023-03-23T19:02:01.129Z,96638.22
2023-03-23T19:04:31.534Z,96640.06
2023-03-23T19:06:59.387Z,96642.88
2023-03-23T19:09:26.069Z,96642.19
2023-03-23T19:11:52.615Z,96643.19
2023-03-23T19:14:19.418Z,96651.28
2023-03-23T19:16:45.910Z,96657.91
2023-03-23T19:19:13.227Z,96660.88
2023-03-23T19:21:40.711Z,96658.97
2023-03-23T19:24:08.394Z,96661.22
2023-03-23T19:26:38.557Z,96662.44
2023-03-23T19:31:43.329Z,96655.88
2023-03-23T19:34:11.572Z,96668.53
2023-03-23T19:36:39.439Z,96660.59
2023-03-23T19:39:07.597Z,96664.25
2023-03-23T19:41:35.019Z,96667.78
2023-03-23T19:44:03.560Z,96669.63
2023-03-23T19:46:31.569Z,96677.06
2023-03-23T19:48:58.923Z,96672.22
2023-03-23T19:51:27.200Z,96662.63
2023-03-23T19:53:56.312Z,96673.09
2023-03-23T19:56:23.461Z,96673.94
2023-03-23T19:58:50.879Z,96672.41
2023-03-23T20:01:18.237Z,96668.66
2023-03-23T20:03:45.675Z,96666.56
2023-03-23T20:06:15.373Z,96672.28
2023-03-23T20:08:44.964Z,96672.69
2023-03-23T20:11:14.407Z,96675.47
2023-03-23T20:13:41.607Z,96667.78
2023-03-23T20:16:09.070Z,96674.19
2023-03-23T20:18:37.650Z,96668.03
2023-03-23T20:21:10.784Z,96668.31
2023-03-23T20:23:38.447Z,96666.50
2023-03-23T20:26:09.332Z,96663.28
2023-03-23T20:28:35.996Z,96675.25
2023-03-23T20:31:23.382Z,96672.72
2023-03-23T20:34:00.581Z,96679.69
2023-03-23T20:36:40.412Z,96685.63
2023-03-23T20:39:13.413Z,96685.91
2023-03-23T20:41:40.575Z,96681.88
2023-03-23T20:44:13.689Z,96684.50
2023-03-23T20:46:41.267Z,96688.56
2023-03-23T20:49:08.437Z,96681.28
2023-03-23T20:51:35.044Z,96676.97
2023-03-23T20:54:02.128Z,96682.41
2023-03-23T20:56:28.965Z,96676.97
2023-03-23T20:58:55.991Z,96675.03
2023-03-23T21:01:22.834Z,96669.16
2023-03-23T21:03:52.187Z,96667.09
2023-03-23T21:06:19.467Z,96670.72
2023-03-23T21:08:46.783Z,96672.97
2023-03-23T21:11:21.505Z,96670.47
2023-03-23T21:13:48.454Z,96670.31
2023-03-23T21:16:15.196Z,96665.72
2023-03-23T21:18:41.953Z,96671.88
2023-03-23T21:21:11.158Z,96677.97
2023-03-23T21:23:38.970Z,96675.63
2023-03-23T21:26:08.205Z,96678.50
2023-03-23T21:28:34.778Z,96676.56
2023-03-23T21:31:03.722Z,96675.69
2023-03-23T21:33:30.794Z,96672.19
2023-03-23T21:35:57.598Z,96677.47
2023-03-23T21:38:26.515Z,96668.28
2023-03-23T21:40:54.742Z,96666.03
2023-03-23T21:43:27.382Z,96667.53
2023-03-23T21:45:56.161Z,96673.53
2023-03-23T21:48:25.034Z,96668.09
2023-03-23T21:50:52.852Z,96672.81
2023-03-23T21:53:20.385Z,96665.97
2023-03-23T21:55:54.602Z,96664.13
2023-03-23T21:58:24.476Z,96658.84
2023-03-23T22:00:54.181Z,96661.22
2023-03-23T22:03:24.971Z,96659.28
2023-03-23T22:05:54.391Z,96662.44
2023-03-23T22:08:23.265Z,96658.00
2023-03-23T22:11:01.423Z,96652.59
2023-03-23T22:13:30.648Z,96657.59
2023-03-23T22:15:58.750Z,96647.75
2023-03-23T22:18:26.035Z,96650.38
2023-03-23T22:20:53.349Z,96647.44
2023-03-23T22:23:20.334Z,96657.03
2023-03-23T22:25:47.227Z,96653.97
2023-03-23T22:28:13.782Z,96646.03
2023-03-23T22:30:40.640Z,96646.84
2023-03-23T22:33:07.254Z,96641.16
2023-03-23T22:35:33.970Z,96642.16
2023-03-23T22:38:03.127Z,96642.97
2023-03-23T22:40:31.941Z,96638.66
2023-03-23T22:42:58.621Z,96636.00
2023-03-23T22:45:26.165Z,96632.53
2023-03-23T22:47:53.137Z,96623.78
2023-03-23T22:50:21.574Z,96627.13
2023-03-23T22:52:48.552Z,96626.69
2023-03-23T22:55:15.489Z,96621.66
2023-03-23T22:57:42.199Z,96620.25
2023-03-23T23:00:14.942Z,96615.94
2023-03-23T23:02:45.399Z,96616.75
2023-03-23T23:05:13.296Z,96613.97
2023-03-23T23:07:40.535Z,96603.00
2023-03-23T23:10:07.489Z,96600.38
2023-03-23T23:12:35.118Z,96606.84
2023-03-23T23:15:03.824Z,96595.59
2023-03-23T23:17:32.113Z,96592.22
2023-03-23T23:19:59.912Z,96598.50
2023-03-23T23:22:26.979Z,96592.38
2023-03-23T23:24:53.580Z,96590.59
2023-03-23T23:27:20.572Z,96588.91
2023-03-23T23:29:47.235Z,96586.00
2023-03-23T23:32:13.861Z,96583.34
2023-03-23T23:34:40.399Z,96578.19
2023-03-23T23:37:08.999Z,96575.81
2023-03-23T23:39:38.475Z,96576.91
2023-03-23T23:42:05.928Z,96573.41
2023-03-23T23:44:33.104Z,96573.41
2023-03-23T23:46:59.727Z,96569.81
2023-03-23T23:49:28.747Z,96569.66
2023-03-23T23:51:56.554Z,96575.81
2023-03-23T23:54:29.573Z,96573.16
2023-03-23T23:57:01.001Z,96569.66
2023-03-23T23:59:28.973Z,96556.09
